createdAt,value
2022-08-24T00:01:52.017Z,12.25
2022-08-24T00:03:57.829Z,10.48
2022-08-24T00:06:11.128Z,11.45
2022-08-24T00:08:13.764Z,13.13
2022-08-24T00:10:31.044Z,10.98
2022-08-24T00:12:42.372Z,14.20
2022-08-24T00:14:45.378Z,11.20
2022-08-24T00:17:21.864Z,12.55
2022-08-24T00:19:24.583Z,23.90
2022-08-24T00:21:27.270Z,26.02
2022-08-24T00:23:30.097Z,28.45
2022-08-24T00:25:41.161Z,27.17
2022-08-24T00:27:43.528Z,26.17
2022-08-24T00:29:46.084Z,32.80
2022-08-24T00:32:03.427Z,27.88
2022-08-24T00:34:12.975Z,23.90
2022-08-24T00:36:15.381Z,24.35
2022-08-24T00:38:17.603Z,22.27
2022-08-24T00:40:43.463Z,21.90
2022-08-24T00:42:45.909Z,22.90
2022-08-24T00:44:49.511Z,25.30
2022-08-24T00:47:02.427Z,23.10
2022-08-24T00:49:12.413Z,25.10
2022-08-24T00:51:21.349Z,23.80
2022-08-24T00:53:29.656Z,26.95
2022-08-24T00:55:46.786Z,27.60
2022-08-24T00:57:53.591Z,28.33
2022-08-24T01:00:19.977Z,31.42
2022-08-24T01:02:29.964Z,30.42
2022-08-24T01:04:37.844Z,25.73
2022-08-24T01:06:53.721Z,27.63
2022-08-24T01:08:59.301Z,28.15
2022-08-24T01:11:09.237Z,30.80
2022-08-24T01:13:12.408Z,32.30
2022-08-24T01:15:15.955Z,33.13
2022-08-24T01:17:38.988Z,32.30
2022-08-24T01:19:45.741Z,30.80
2022-08-24T01:21:54.378Z,29.98
2022-08-24T01:24:01.723Z,30.90
2022-08-24T01:26:03.706Z,30.65
2022-08-24T01:28:10.931Z,29.83
2022-08-24T01:30:14.527Z,29.48
2022-08-24T01:32:23.209Z,28.35
2022-08-24T01:34:25.622Z,26.17
2022-08-24T01:36:37.115Z,29.40
2022-08-24T01:38:39.487Z,30.17
2022-08-24T01:40:49.639Z,28.33
2022-08-24T01:42:52.964Z,30.83
2022-08-24T01:44:54.985Z,34.05
2022-08-24T01:46:57.469Z,29.60
2022-08-24T01:48:59.517Z,34.67
2022-08-24T01:51:01.653Z,30.42
2022-08-24T01:53:06.199Z,34.17
2022-08-24T01:55:26.961Z,33.90
2022-08-24T01:57:29.431Z,33.05
2022-08-24T01:59:32.116Z,28.65
2022-08-24T02:01:38.343Z,35.30
2022-08-24T02:03:40.216Z,31.42
2022-08-24T02:05:42.076Z,32.17
2022-08-24T02:07:44.346Z,37.13
2022-08-24T02:09:47.066Z,33.33
2022-08-24T02:11:49.360Z,35.57
2022-08-24T02:13:51.360Z,33.17
2022-08-24T02:15:54.330Z,31.70
2022-08-24T02:17:57.050Z,29.80
2022-08-24T02:19:59.070Z,31.25
2022-08-24T02:22:01.207Z,31.13
2022-08-24T02:24:03.323Z,33.08
2022-08-24T02:26:06.004Z,30.92
2022-08-24T02:28:07.801Z,30.33
2022-08-24T02:30:10.073Z,27.58
2022-08-24T02:32:12.554Z,28.50
2022-08-24T02:34:14.727Z,31.33
2022-08-24T02:36:25.467Z,27.65
2022-08-24T02:38:28.856Z,31.17
2022-08-24T02:40:31.321Z,26.33
2022-08-24T02:42:33.160Z,28.63
2022-08-24T02:44:35.526Z,27.20
2022-08-24T02:46:37.325Z,25.98
2022-08-24T02:48:39.278Z,26.98
2022-08-24T02:50:44.151Z,26.35
2022-08-24T02:52:46.692Z,24.48
2022-08-24T02:54:48.488Z,26.60
2022-08-24T02:56:50.364Z,25.83
2022-08-24T02:58:54.228Z,25.02
2022-08-24T03:00:56.591Z,26.10
2022-08-24T03:02:58.873Z,25.27
2022-08-24T03:05:01.721Z,26.50
2022-08-24T03:07:04.173Z,26.80
2022-08-24T03:09:06.289Z,27.70
2022-08-24T03:11:08.420Z,25.65
2022-08-24T03:13:10.626Z,29.88
2022-08-24T03:15:12.945Z,26.30
2022-08-24T03:17:15.166Z,26.73
2022-08-24T03:19:20.462Z,26.52
2022-08-24T03:21:22.389Z,27.88
2022-08-24T03:23:25.014Z,28.65
2022-08-24T03:25:28.192Z,29.65
2022-08-24T03:27:30.576Z,26.98
2022-08-24T03:31:37.753Z,31.40
2022-08-24T03:33:39.736Z,29.60
2022-08-24T03:35:41.567Z,26.23
2022-08-24T03:37:43.603Z,26.17
2022-08-24T03:39:47.820Z,28.42
2022-08-24T03:41:49.693Z,27.70
2022-08-24T03:43:51.958Z,23.38
2022-08-24T03:45:54.366Z,22.85
2022-08-24T03:47:57.049Z,21.50
2022-08-24T03:49:58.785Z,25.65
2022-08-24T03:52:00.908Z,23.95
2022-08-24T03:54:04.335Z,24.60
2022-08-24T03:56:06.419Z,25.70
2022-08-24T03:58:09.607Z,24.95
2022-08-24T04:00:12.698Z,19.70
2022-08-24T04:02:14.829Z,25.20
2022-08-24T04:04:17.412Z,22.38
2022-08-24T04:06:20.634Z,21.67
2022-08-24T04:08:22.507Z,21.77
2022-08-24T04:10:24.251Z,20.75
2022-08-24T04:12:26.718Z,23.35
2022-08-24T04:14:29.166Z,20.35
2022-08-24T04:16:31.106Z,20.52
2022-08-24T04:18:32.990Z,19.65
2022-08-24T04:20:42.581Z,20.80
2022-08-24T04:22:44.719Z,19.67
2022-08-24T04:24:47.342Z,20.48
2022-08-24T04:26:49.139Z,20.40
2022-08-24T04:28:52.570Z,20.17
2022-08-24T04:30:54.302Z,20.10
2022-08-24T04:32:56.123Z,18.33
2022-08-24T04:34:59.364Z,21.85
2022-08-24T04:37:01.083Z,18.50
2022-08-24T04:39:03.355Z,19.38
2022-08-24T04:41:07.288Z,20.70
2022-08-24T04:43:09.313Z,16.17
2022-08-24T04:45:11.948Z,14.20
2022-08-24T04:47:14.004Z,13.90
2022-08-24T04:49:16.171Z,13.68
2022-08-24T04:51:19.079Z,13.30
2022-08-24T04:53:20.893Z,14.55
2022-08-24T04:55:22.640Z,15.63
2022-08-24T04:57:24.682Z,19.27
2022-08-24T04:59:26.450Z,19.25
2022-08-24T05:01:30.602Z,17.45
2022-08-24T05:03:32.975Z,17.60
2022-08-24T05:05:34.949Z,12.85
2022-08-24T05:07:37.705Z,13.57
2022-08-24T05:09:39.630Z,9.93
2022-08-24T05:11:41.441Z,11.77
2022-08-24T05:13:55.567Z,10.05
2022-08-24T05:15:57.534Z,8.27
2022-08-24T05:17:59.629Z,12.77
2022-08-24T05:20:01.458Z,13.80
2022-08-24T05:22:03.888Z,11.07
2022-08-24T05:24:06.046Z,8.60
2022-08-24T05:26:12.182Z,10.32
2022-08-24T05:28:13.943Z,8.68
2022-08-24T05:30:19.078Z,10.23
2022-08-24T05:32:21.236Z,10.75
2022-08-24T05:34:28.234Z,12.30
2022-08-24T05:36:38.124Z,15.52
2022-08-24T05:38:40.447Z,11.20
2022-08-24T05:40:42.335Z,14.77
2022-08-24T05:42:44.254Z,13.98
2022-08-24T05:44:46.842Z,8.93
2022-08-24T05:46:49.105Z,13.13
2022-08-24T05:48:52.937Z,11.55
2022-08-24T05:50:56.891Z,11.25
2022-08-24T05:55:00.891Z,9.77
2022-08-24T05:57:05.234Z,8.23
2022-08-24T05:59:07.487Z,8.30
2022-08-24T06:01:13.103Z,8.40
2022-08-24T06:03:15.772Z,8.82
2022-08-24T06:05:17.588Z,7.23
2022-08-24T06:07:19.505Z,9.65
2022-08-24T06:09:21.670Z,11.70
2022-08-24T06:11:32.961Z,6.80
2022-08-24T06:13:35.363Z,8.23
2022-08-24T06:15:45.640Z,9.52
2022-08-24T06:17:53.244Z,7.82
2022-08-24T06:19:55.794Z,11.07
2022-08-24T06:21:57.951Z,8.27
2022-08-24T06:24:00.903Z,8.30
2022-08-24T06:26:24.973Z,10.85
2022-08-24T06:28:27.276Z,9.73
2022-08-24T06:30:30.777Z,9.65
2022-08-24T06:34:34.501Z,9.95
2022-08-24T06:36:37.251Z,9.95
2022-08-24T06:38:46.937Z,11.30
2022-08-24T06:40:48.983Z,11.80
2022-08-24T06:42:50.783Z,11.02
2022-08-24T06:44:53.948Z,11.02
2022-08-24T06:46:56.154Z,7.47
2022-08-24T06:48:58.288Z,8.85
2022-08-24T06:51:00.731Z,7.72
2022-08-24T06:53:02.689Z,10.32
2022-08-24T06:55:06.283Z,8.48
2022-08-24T06:59:10.230Z,11.07
2022-08-24T07:01:20.748Z,9.13
2022-08-24T07:03:23.313Z,6.93
2022-08-24T07:05:25.031Z,7.82
2022-08-24T07:07:27.154Z,11.35
2022-08-24T07:09:31.840Z,6.80
2022-08-24T07:11:35.314Z,6.72
2022-08-24T07:15:39.708Z,22.23
2022-08-24T07:17:44.625Z,6.97
2022-08-24T07:19:46.971Z,10.15
2022-08-24T07:21:48.905Z,6.43
2022-08-24T07:23:54.386Z,8.25
2022-08-24T07:25:56.240Z,6.63
2022-08-24T07:28:01.063Z,6.60
2022-08-24T07:30:25.903Z,6.35
2022-08-24T07:32:25.095Z,9.82
2022-08-24T07:34:27.217Z,8.18
2022-08-24T07:36:29.352Z,10.52
2022-08-24T07:38:31.177Z,19.20
2022-08-24T07:40:48.787Z,13.15
2022-08-24T07:42:58.224Z,14.43
2022-08-24T07:45:00.779Z,8.02
2022-08-24T07:47:15.371Z,6.95
2022-08-24T07:49:37.196Z,14.38
2022-08-24T07:51:44.879Z,6.55
2022-08-24T07:53:53.908Z,8.45
2022-08-24T07:55:57.169Z,7.65
2022-08-24T07:57:59.713Z,6.55
2022-08-24T08:00:04.918Z,7.82
2022-08-24T08:02:08.338Z,9.02
2022-08-24T08:04:10.353Z,7.18
2022-08-24T08:06:16.012Z,9.93
2022-08-24T08:08:20.438Z,7.95
2022-08-24T08:10:23.532Z,7.38
2022-08-24T08:12:25.823Z,8.60
2022-08-24T08:14:27.671Z,9.98
2022-08-24T08:16:29.550Z,7.68
2022-08-24T08:18:32.264Z,9.77
2022-08-24T08:20:34.820Z,10.55
2022-08-24T08:22:55.069Z,6.47
2022-08-24T08:24:56.782Z,6.35
2022-08-24T08:26:59.403Z,10.30
2022-08-24T08:29:02.260Z,9.30
2022-08-24T08:31:06.365Z,7.00
2022-08-24T08:33:08.494Z,7.03
2022-08-24T08:35:10.872Z,7.35
2022-08-24T08:37:13.335Z,8.43
2022-08-24T08:39:16.351Z,7.25
2022-08-24T08:41:18.868Z,7.70
2022-08-24T08:43:55.879Z,5.97
2022-08-24T08:46:13.158Z,9.35
2022-08-24T08:48:43.661Z,7.28
2022-08-24T08:50:52.588Z,7.50
2022-08-24T08:53:06.803Z,8.13
2022-08-24T08:55:38.795Z,7.78
2022-08-24T08:58:23.625Z,9.32
2022-08-24T09:01:05.615Z,10.57
2022-08-24T09:03:34.665Z,6.57
2022-08-24T09:05:59.045Z,7.15
2022-08-24T09:08:36.192Z,5.10
2022-08-24T09:10:44.863Z,7.50
2022-08-24T09:13:12.242Z,6.18
2022-08-24T09:15:45.402Z,6.78
2022-08-24T09:18:10.282Z,5.78
2022-08-24T09:20:33.822Z,11.13
2022-08-24T09:22:40.193Z,17.55
2022-08-24T09:25:16.407Z,34.63
2022-08-24T09:27:25.284Z,27.15
2022-08-24T09:30:19.270Z,13.00
2022-08-24T09:32:45.812Z,14.90
2022-08-24T09:35:09.908Z,7.82
2022-08-24T09:37:33.354Z,7.07
2022-08-24T09:40:12.840Z,7.95
2022-08-24T09:42:20.649Z,7.57
2022-08-24T09:44:26.104Z,9.07
2022-08-24T09:46:59.735Z,7.10
2022-08-24T09:49:28.576Z,6.95
2022-08-24T09:52:00.855Z,8.65
2022-08-24T09:54:18.243Z,5.22
2022-08-24T09:56:29.552Z,7.57
2022-08-24T09:59:02.830Z,6.18
2022-08-24T10:01:09.066Z,9.10
2022-08-24T10:03:41.897Z,6.47
2022-08-24T10:06:05.360Z,6.07
2022-08-24T10:08:32.105Z,5.90
2022-08-24T10:11:01.398Z,6.70
2022-08-24T10:13:42.032Z,6.78
2022-08-24T10:16:33.932Z,6.40
2022-08-24T10:18:35.798Z,8.25
2022-08-24T10:20:58.336Z,8.80
2022-08-24T10:23:11.019Z,6.72
2022-08-24T10:25:21.991Z,4.82
2022-08-24T10:27:39.941Z,5.38
2022-08-24T10:30:00.971Z,7.95
2022-08-24T10:32:15.944Z,7.30
2022-08-24T10:34:37.382Z,5.25
2022-08-24T10:36:50.108Z,6.82
2022-08-24T10:39:26.006Z,7.93
2022-08-24T10:41:55.603Z,6.07
2022-08-24T10:44:09.470Z,8.65
2022-08-24T10:46:32.564Z,7.13
2022-08-24T10:48:34.617Z,6.22
2022-08-24T10:51:44.196Z,7.97
2022-08-24T10:53:51.299Z,9.73
2022-08-24T10:56:16.128Z,7.15
2022-08-24T10:58:45.329Z,5.75
2022-08-24T11:00:47.371Z,7.78
2022-08-24T11:02:49.981Z,7.18
2022-08-24T11:04:58.119Z,5.22
2022-08-24T11:07:11.935Z,7.70
2022-08-24T11:11:47.423Z,7.57
2022-08-24T11:13:59.067Z,8.00
2022-08-24T11:16:04.239Z,6.53
2022-08-24T11:18:06.091Z,8.18
2022-08-24T11:20:27.709Z,9.07
2022-08-24T11:23:06.974Z,7.10
2022-08-24T11:25:27.349Z,9.77
2022-08-24T11:27:39.095Z,6.68
2022-08-24T11:29:49.735Z,7.47
2022-08-24T11:31:52.991Z,9.25
2022-08-24T11:34:04.943Z,9.30
2022-08-24T11:36:21.029Z,11.00
2022-08-24T11:38:27.460Z,10.25
2022-08-24T11:40:31.556Z,5.43
2022-08-24T11:43:03.702Z,6.38
2022-08-24T11:45:35.033Z,8.30
2022-08-24T11:47:52.013Z,6.32
2022-08-24T11:50:13.325Z,6.07
2022-08-24T11:52:25.383Z,9.70
2022-08-24T11:54:42.652Z,7.63
2022-08-24T11:57:08.582Z,8.35
2022-08-24T11:59:15.524Z,6.20
2022-08-24T12:01:27.987Z,8.98
2022-08-24T12:03:52.326Z,7.75
2022-08-24T12:06:19.856Z,8.07
2022-08-24T12:08:34.207Z,6.50
2022-08-24T12:10:56.615Z,6.82
2022-08-24T12:13:24.428Z,8.55
2022-08-24T12:15:37.987Z,9.85
2022-08-24T12:17:47.960Z,8.80
2022-08-24T12:19:53.295Z,8.30
2022-08-24T12:21:59.087Z,6.65
2022-08-24T12:24:05.867Z,10.60
2022-08-24T12:26:33.644Z,9.35
2022-08-24T12:28:42.357Z,7.97
2022-08-24T12:30:44.990Z,10.85
2022-08-24T12:32:58.071Z,7.85
2022-08-24T12:35:06.080Z,8.38
2022-08-24T12:37:10.713Z,14.52
2022-08-24T12:39:29.156Z,11.73
2022-08-24T12:41:38.598Z,11.02
2022-08-24T12:43:45.571Z,8.23
2022-08-24T12:45:48.572Z,7.22
2022-08-24T12:48:03.936Z,11.02
2022-08-24T12:50:25.007Z,10.80
2022-08-24T12:52:41.862Z,7.95
2022-08-24T12:55:29.093Z,12.02
2022-08-24T12:57:53.109Z,8.77
2022-08-24T13:00:07.501Z,7.38
2022-08-24T13:02:18.008Z,8.48
2022-08-24T13:04:38.683Z,10.38
2022-08-24T13:06:44.761Z,10.38
2022-08-24T13:08:50.743Z,9.48
2022-08-24T13:11:00.157Z,10.88
2022-08-24T13:13:04.470Z,10.98
2022-08-24T13:15:28.534Z,9.55
2022-08-24T13:17:41.804Z,11.13
2022-08-24T13:19:46.208Z,7.78
2022-08-24T13:21:58.694Z,11.80
2022-08-24T13:24:28.214Z,9.32
2022-08-24T13:26:32.569Z,11.50
2022-08-24T13:28:49.327Z,8.70
2022-08-24T13:31:06.644Z,11.60
2022-08-24T13:33:10.842Z,11.13
2022-08-24T13:35:40.964Z,9.38
2022-08-24T13:37:43.183Z,8.02
2022-08-24T13:40:15.541Z,10.20
2022-08-24T13:42:21.780Z,10.07
2022-08-24T13:44:47.557Z,10.40
2022-08-24T13:46:57.087Z,9.65
2022-08-24T13:49:04.309Z,8.88
2022-08-24T13:51:20.649Z,9.25
2022-08-24T13:53:52.862Z,9.90
2022-08-24T13:56:12.276Z,10.93
2022-08-24T13:58:16.812Z,11.13
2022-08-24T14:00:40.783Z,10.45
2022-08-24T14:02:58.133Z,10.23
2022-08-24T14:05:22.390Z,13.50
2022-08-24T14:07:29.507Z,12.98
2022-08-24T14:09:50.605Z,10.63
2022-08-24T14:12:01.537Z,9.25
2022-08-24T14:14:11.476Z,10.38
2022-08-24T14:17:14.425Z,14.55
2022-08-24T14:19:39.070Z,10.98
2022-08-24T14:21:55.573Z,7.95
2022-08-24T14:24:09.247Z,9.30
2022-08-24T14:26:40.892Z,11.80
2022-08-24T14:28:43.914Z,9.77
2022-08-24T14:30:46.988Z,10.93
2022-08-24T14:33:20.365Z,13.50
2022-08-24T14:35:42.494Z,12.27
2022-08-24T14:38:10.637Z,10.20
2022-08-24T14:40:37.325Z,13.85
2022-08-24T14:42:59.064Z,11.48
2022-08-24T14:45:10.685Z,11.85
2022-08-24T14:47:47.698Z,17.35
2022-08-24T14:50:09.160Z,12.60
2022-08-24T14:52:30.691Z,12.60
2022-08-24T14:54:56.144Z,13.00
2022-08-24T14:57:18.623Z,14.63
2022-08-24T14:59:23.253Z,9.95
2022-08-24T15:01:39.281Z,12.95
2022-08-24T15:04:02.088Z,14.65
2022-08-24T15:06:26.760Z,14.45
2022-08-24T15:08:42.985Z,13.25
2022-08-24T15:10:50.622Z,16.08
2022-08-24T15:13:04.251Z,15.02
2022-08-24T15:15:15.483Z,12.10
2022-08-24T15:17:20.678Z,15.70
2022-08-24T15:19:45.078Z,17.75
2022-08-24T15:22:02.351Z,12.02
2022-08-24T15:24:16.779Z,13.82
2022-08-24T15:26:49.521Z,14.65
2022-08-24T15:28:56.593Z,14.70
2022-08-24T15:31:00.359Z,16.52
2022-08-24T15:35:07.555Z,14.55
2022-08-24T15:37:10.117Z,13.00
2022-08-24T15:39:26.588Z,13.35
2022-08-24T15:41:34.824Z,18.65
2022-08-24T15:43:43.105Z,15.05
2022-08-24T15:45:49.545Z,14.15
2022-08-24T15:47:53.200Z,11.70
2022-08-24T15:49:58.224Z,17.15
2022-08-24T15:52:07.319Z,19.95
2022-08-24T15:54:25.552Z,16.05
2022-08-24T15:56:36.131Z,15.65
2022-08-24T15:58:41.710Z,21.20
2022-08-24T16:01:02.477Z,22.50
2022-08-24T16:03:25.029Z,18.95
2022-08-24T16:05:27.340Z,13.93
2022-08-24T16:07:54.109Z,14.32
2022-08-24T16:10:09.566Z,15.50
2022-08-24T16:12:22.983Z,20.65
2022-08-24T16:14:31.756Z,17.23
2022-08-24T16:16:38.451Z,16.63
2022-08-24T16:18:55.385Z,21.67
2022-08-24T16:20:58.978Z,18.15
2022-08-24T16:23:06.907Z,20.00
2022-08-24T16:25:17.541Z,20.65
2022-08-24T16:27:19.677Z,23.80
2022-08-24T16:29:37.750Z,24.95
2022-08-24T16:31:51.997Z,17.00
2022-08-24T16:34:10.850Z,20.67
2022-08-24T16:36:18.099Z,24.27
2022-08-24T16:38:20.199Z,24.90
2022-08-24T16:40:25.790Z,21.20
2022-08-24T16:42:29.438Z,25.17
2022-08-24T16:44:40.555Z,30.23
2022-08-24T16:46:42.390Z,34.42
2022-08-24T16:48:50.091Z,27.95
2022-08-24T16:50:53.120Z,21.10
2022-08-24T16:52:55.130Z,24.77
2022-08-24T16:54:57.732Z,26.02
2022-08-24T16:57:01.983Z,17.97
2022-08-24T16:59:04.252Z,25.55
2022-08-24T17:01:06.421Z,23.85
2022-08-24T17:03:12.843Z,23.55
2022-08-24T17:05:18.103Z,18.40
2022-08-24T17:07:24.084Z,19.38
2022-08-24T17:09:25.840Z,23.65
2022-08-24T17:11:27.833Z,24.98
2022-08-24T17:15:53.836Z,22.50
2022-08-24T17:18:01.544Z,22.83
2022-08-24T17:20:05.324Z,37.40
2022-08-24T17:22:07.111Z,18.52
2022-08-24T17:24:10.349Z,22.45
2022-08-24T17:26:20.991Z,24.65
2022-08-24T17:28:23.703Z,16.20
2022-08-24T17:30:26.186Z,19.50
2022-08-24T17:32:32.368Z,28.15
2022-08-24T17:34:34.915Z,26.63
2022-08-24T17:36:37.255Z,22.35
2022-08-24T17:38:52.924Z,26.88
2022-08-24T17:40:56.723Z,24.45
2022-08-24T17:42:59.174Z,20.55
2022-08-24T17:45:01.014Z,18.40
2022-08-24T17:47:04.256Z,19.48
2022-08-24T17:49:07.119Z,28.05
2022-08-24T17:51:08.976Z,21.55
2022-08-24T17:53:11.503Z,25.85
2022-08-24T17:55:14.842Z,27.23
2022-08-24T17:57:17.861Z,24.17
2022-08-24T17:59:28.872Z,35.90
2022-08-24T18:01:30.884Z,27.35
2022-08-24T18:03:32.757Z,27.58
2022-08-24T18:05:36.359Z,21.92
2022-08-24T18:10:00.438Z,29.40
2022-08-24T18:12:02.950Z,30.30
2022-08-24T18:14:04.615Z,26.77
2022-08-24T18:16:10.179Z,22.85
2022-08-24T18:18:13.237Z,25.70
2022-08-24T18:20:17.012Z,29.48
2022-08-24T18:22:19.751Z,28.23
2022-08-24T18:24:22.120Z,26.80
2022-08-24T18:26:28.107Z,19.88
2022-08-24T18:28:30.160Z,28.98
2022-08-24T18:30:32.335Z,38.65
2022-08-24T18:32:39.746Z,25.67
2022-08-24T18:34:42.137Z,26.92
2022-08-24T18:36:44.032Z,33.78
2022-08-24T18:38:45.941Z,25.25
2022-08-24T18:40:52.942Z,34.63
2022-08-24T18:42:57.075Z,35.25
2022-08-24T18:45:03.606Z,25.45
2022-08-24T18:47:05.917Z,30.05
2022-08-24T18:49:08.250Z,25.77
2022-08-24T18:51:10.925Z,27.67
2022-08-24T18:53:13.536Z,25.07
2022-08-24T18:55:15.564Z,33.53
2022-08-24T18:57:18.255Z,21.08
2022-08-24T18:59:21.413Z,25.25
2022-08-24T19:01:23.550Z,33.45
2022-08-24T19:03:26.364Z,26.10
2022-08-24T19:05:28.155Z,24.97
2022-08-24T19:07:32.341Z,26.90
2022-08-24T19:09:34.574Z,30.13
2022-08-24T19:11:37.498Z,22.55
2022-08-24T19:13:40.121Z,25.13
2022-08-24T19:15:42.901Z,21.93
2022-08-24T19:17:44.949Z,30.75
2022-08-24T19:19:49.541Z,31.13
2022-08-24T19:21:51.392Z,30.30
2022-08-24T19:23:54.958Z,22.30
2022-08-24T19:27:59.008Z,29.48
2022-08-24T19:30:01.201Z,24.30
2022-08-24T19:32:03.662Z,24.58
2022-08-24T19:34:07.004Z,29.05
2022-08-24T19:36:09.481Z,24.48
2022-08-24T19:38:11.513Z,28.08
2022-08-24T19:40:14.238Z,28.83
2022-08-24T19:42:16.989Z,22.27
2022-08-24T19:44:38.602Z,25.67
2022-08-24T19:46:40.372Z,30.38
2022-08-24T19:48:44.416Z,22.42
2022-08-24T19:50:46.361Z,26.30
2022-08-24T19:52:48.697Z,33.05
2022-08-24T19:54:50.610Z,27.90
2022-08-24T19:57:01.806Z,21.47
2022-08-24T19:59:18.566Z,24.63
2022-08-24T20:01:24.294Z,25.20
2022-08-24T20:03:29.495Z,22.40
2022-08-24T20:05:32.250Z,22.25
2022-08-24T20:07:34.485Z,26.75
2022-08-24T20:09:36.449Z,24.67
2022-08-24T20:11:39.613Z,25.67
2022-08-24T20:13:41.487Z,30.45
2022-08-24T20:15:43.737Z,23.70
2022-08-24T20:17:45.971Z,18.95
2022-08-24T20:19:47.910Z,23.25
2022-08-24T20:21:49.690Z,15.80
2022-08-24T20:23:51.641Z,22.38
2022-08-24T20:25:54.202Z,20.80
2022-08-24T20:28:12.557Z,20.23
2022-08-24T20:30:18.959Z,20.58
2022-08-24T20:32:21.556Z,27.83
2022-08-24T20:34:23.694Z,22.40
2022-08-24T20:36:30.617Z,19.63
2022-08-24T20:38:34.042Z,21.52
2022-08-24T20:40:36.124Z,18.88
2022-08-24T20:42:38.796Z,27.90
2022-08-24T20:44:41.063Z,22.80
2022-08-24T20:46:46.748Z,33.45
2022-08-24T20:48:55.367Z,22.30
2022-08-24T20:50:58.120Z,14.88
2022-08-24T20:53:00.153Z,29.90
2022-08-24T20:55:05.193Z,26.80
2022-08-24T20:57:08.832Z,19.63
2022-08-24T20:59:12.512Z,30.02
2022-08-24T21:01:14.361Z,21.02
2022-08-24T21:03:18.924Z,26.20
2022-08-24T21:05:21.386Z,24.42
2022-08-24T21:07:23.478Z,19.50
2022-08-24T21:09:25.795Z,18.65
2022-08-24T21:11:27.605Z,19.90
2022-08-24T21:13:30.107Z,22.50
2022-08-24T21:15:33.613Z,23.83
2022-08-24T21:21:47.056Z,23.58
2022-08-24T21:23:49.169Z,23.58
2022-08-24T21:25:52.213Z,22.17
2022-08-24T21:27:53.996Z,17.92
2022-08-24T21:29:56.235Z,19.65
2022-08-24T21:32:16.529Z,23.75
2022-08-24T21:34:36.979Z,28.52
2022-08-24T21:36:39.236Z,24.38
2022-08-24T21:38:41.438Z,19.52
2022-08-24T21:40:47.290Z,20.65
2022-08-24T21:42:52.801Z,18.40
2022-08-24T21:44:58.295Z,23.77
2022-08-24T21:47:01.647Z,35.80
2022-08-24T21:49:04.123Z,19.92
2022-08-24T21:54:30.388Z,23.65
2022-08-24T21:56:32.976Z,26.42
2022-08-24T21:58:42.520Z,20.20
2022-08-24T22:00:47.891Z,29.33
2022-08-24T22:02:50.274Z,23.23
2022-08-24T22:04:56.929Z,16.67
2022-08-24T22:07:02.597Z,20.92
2022-08-24T22:09:05.838Z,26.85
2022-08-24T22:11:12.567Z,24.30
2022-08-24T22:13:18.076Z,23.95
2022-08-24T22:15:23.456Z,19.35
2022-08-24T22:17:26.016Z,20.40
2022-08-24T22:19:28.479Z,20.40
2022-08-24T22:21:31.550Z,28.88
2022-08-24T22:23:39.063Z,25.17
2022-08-24T22:25:52.061Z,22.30
2022-08-24T22:27:54.374Z,17.85
2022-08-24T22:29:57.908Z,22.60
2022-08-24T22:34:05.456Z,21.75
2022-08-24T22:36:10.907Z,18.63
2022-08-24T22:38:13.718Z,20.60
2022-08-24T22:40:15.978Z,20.63
2022-08-24T22:42:24.509Z,23.38
2022-08-24T22:44:27.826Z,16.85
2022-08-24T22:46:29.707Z,25.80
2022-08-24T22:48:32.070Z,19.58
2022-08-24T22:50:33.929Z,23.75
2022-08-24T22:52:35.790Z,23.85
2022-08-24T22:54:38.327Z,20.58
2022-08-24T22:56:53.640Z,22.77
2022-08-24T22:58:56.661Z,22.65
2022-08-24T23:00:59.086Z,24.25
2022-08-24T23:03:13.921Z,18.60
2022-08-24T23:05:21.790Z,22.08
2022-08-24T23:07:23.543Z,18.02
2022-08-24T23:09:26.136Z,23.88
2022-08-24T23:11:29.704Z,31.70
2022-08-24T23:13:32.240Z,22.17
2022-08-24T23:15:34.070Z,18.33
2022-08-24T23:17:36.336Z,17.27
2022-08-24T23:20:22.977Z,18.63
2022-08-24T23:22:25.732Z,28.20
2022-08-24T23:24:28.370Z,21.48
2022-08-24T23:26:32.746Z,20.40
2022-08-24T23:28:35.146Z,20.67
2022-08-24T23:30:38.260Z,19.02
2022-08-24T23:32:40.465Z,18.50
2022-08-24T23:34:42.475Z,18.20
2022-08-24T23:36:44.880Z,25.25
2022-08-24T23:38:47.496Z,20.27
2022-08-24T23:40:49.483Z,19.73
2022-08-24T23:42:51.852Z,20.10
2022-08-24T23:44:54.544Z,24.23
2022-08-24T23:46:58.348Z,15.75
2022-08-24T23:49:03.505Z,28.80
2022-08-24T23:51:10.275Z,19.67
2022-08-24T23:53:12.210Z,19.08
2022-08-24T23:55:22.003Z,14.95
2022-08-24T23:57:24.081Z,21.40
2022-08-24T23:59:28.032Z,20.38
